sensor_id;sensor_type;location;lat;lon;timestamp;P1;durP1;ratioP1;P2;durP2;ratioP2
14205;SDS011;7186;48.800;9.216;2022-07-10T00:00:28;5.50;;;4.23;;
14205;SDS011;7186;48.800;9.216;2022-07-10T00:02:53;4.57;;;4.13;;
14205;SDS011;7186;48.800;9.216;2022-07-10T00:05:19;4.37;;;3.97;;
14205;SDS011;7186;48.800;9.216;2022-07-10T00:07:44;4.60;;;4.13;;
14205;SDS011;7186;48.800;9.216;2022-07-10T00:10:10;7.30;;;4.43;;
14205;SDS011;7186;48.800;9.216;2022-07-10T00:12:35;7.53;;;4.73;;
14205;SDS011;7186;48.800;9.216;2022-07-10T00:15:01;4.83;;;4.33;;
14205;SDS011;7186;48.800;9.216;2022-07-10T00:17:27;5.00;;;4.50;;
14205;SDS011;7186;48.800;9.216;2022-07-10T00:19:52;5.97;;;4.23;;
14205;SDS011;7186;48.800;9.216;2022-07-10T00:22:17;5.57;;;4.50;;
14205;SDS011;7186;48.800;9.216;2022-07-10T00:24:42;5.83;;;4.40;;
14205;SDS011;7186;48.800;9.216;2022-07-10T00:27:08;4.77;;;4.30;;
14205;SDS011;7186;48.800;9.216;2022-07-10T00:29:33;5.63;;;3.87;;
14205;SDS011;7186;48.800;9.216;2022-07-10T00:31:58;5.73;;;4.17;;
14205;SDS011;7186;48.800;9.216;2022-07-10T00:34:23;5.47;;;3.90;;
14205;SDS011;7186;48.800;9.216;2022-07-10T00:36:48;4.67;;;4.00;;
14205;SDS011;7186;48.800;9.216;2022-07-10T00:39:14;4.13;;;3.73;;
14205;SDS011;7186;48.800;9.216;2022-07-10T00:41:39;4.20;;;3.80;;
14205;SDS011;7186;48.800;9.216;2022-07-10T00:44:04;6.57;;;4.27;;
14205;SDS011;7186;48.800;9.216;2022-07-10T00:46:30;4.30;;;3.90;;
14205;SDS011;7186;48.800;9.216;2022-07-10T00:48:56;6.47;;;3.80;;
14205;SDS011;7186;48.800;9.216;2022-07-10T00:51:23;5.97;;;4.00;;
14205;SDS011;7186;48.800;9.216;2022-07-10T00:53:49;6.77;;;4.07;;
14205;SDS011;7186;48.800;9.216;2022-07-10T00:56:18;4.93;;;4.20;;
14205;SDS011;7186;48.800;9.216;2022-07-10T00:58:45;5.07;;;4.40;;
14205;SDS011;7186;48.800;9.216;2022-07-10T01:01:10;4.13;;;3.73;;
14205;SDS011;7186;48.800;9.216;2022-07-10T01:03:36;4.07;;;3.67;;
14205;SDS011;7186;48.800;9.216;2022-07-10T01:06:01;7.03;;;4.60;;
14205;SDS011;7186;48.800;9.216;2022-07-10T01:08:26;4.37;;;3.80;;
14205;SDS011;7186;48.800;9.216;2022-07-10T01:10:52;4.87;;;4.03;;
14205;SDS011;7186;48.800;9.216;2022-07-10T01:13:17;5.13;;;4.63;;
14205;SDS011;7186;48.800;9.216;2022-07-10T01:15:43;4.50;;;4.10;;
14205;SDS011;7186;48.800;9.216;2022-07-10T01:18:08;4.50;;;4.10;;
14205;SDS011;7186;48.800;9.216;2022-07-10T01:20:34;7.07;;;3.70;;
14205;SDS011;7186;48.800;9.216;2022-07-10T01:22:59;4.57;;;4.13;;
14205;SDS011;7186;48.800;9.216;2022-07-10T01:25:25;4.80;;;4.30;;
14205;SDS011;7186;48.800;9.216;2022-07-10T01:27:50;5.27;;;4.07;;
14205;SDS011;7186;48.800;9.216;2022-07-10T01:30:15;7.30;;;4.57;;
14205;SDS011;7186;48.800;9.216;2022-07-10T01:32:41;5.13;;;4.63;;
14205;SDS011;7186;48.800;9.216;2022-07-10T01:35:06;4.80;;;4.30;;
14205;SDS011;7186;48.800;9.216;2022-07-10T01:37:32;5.67;;;4.37;;
14205;SDS011;7186;48.800;9.216;2022-07-10T01:39:57;4.67;;;4.07;;
14205;SDS011;7186;48.800;9.216;2022-07-10T01:42:22;5.43;;;4.17;;
14205;SDS011;7186;48.800;9.216;2022-07-10T01:44:48;7.27;;;5.10;;
14205;SDS011;7186;48.800;9.216;2022-07-10T01:47:13;5.43;;;4.40;;
14205;SDS011;7186;48.800;9.216;2022-07-10T01:49:38;6.43;;;4.40;;
14205;SDS011;7186;48.800;9.216;2022-07-10T01:52:04;5.07;;;4.57;;
14205;SDS011;7186;48.800;9.216;2022-07-10T01:54:29;6.33;;;4.17;;
14205;SDS011;7186;48.800;9.216;2022-07-10T01:56:54;5.47;;;4.47;;
14205;SDS011;7186;48.800;9.216;2022-07-10T01:59:19;5.20;;;4.70;;
14205;SDS011;7186;48.800;9.216;2022-07-10T02:01:45;6.17;;;5.17;;
14205;SDS011;7186;48.800;9.216;2022-07-10T02:04:10;8.77;;;4.90;;
14205;SDS011;7186;48.800;9.216;2022-07-10T02:06:54;5.67;;;4.70;;
14205;SDS011;7186;48.800;9.216;2022-07-10T02:09:19;5.60;;;4.83;;
14205;SDS011;7186;48.800;9.216;2022-07-10T02:11:44;6.07;;;5.13;;
14205;SDS011;7186;48.800;9.216;2022-07-10T02:14:09;6.37;;;5.37;;
14205;SDS011;7186;48.800;9.216;2022-07-10T02:16:35;6.93;;;5.27;;
14205;SDS011;7186;48.800;9.216;2022-07-10T02:19:01;5.63;;;5.03;;
14205;SDS011;7186;48.800;9.216;2022-07-10T02:21:26;5.93;;;5.10;;
14205;SDS011;7186;48.800;9.216;2022-07-10T02:23:51;8.37;;;6.03;;
14205;SDS011;7186;48.800;9.216;2022-07-10T02:26:16;7.23;;;6.07;;
14205;SDS011;7186;48.800;9.216;2022-07-10T02:28:42;6.87;;;6.17;;
14205;SDS011;7186;48.800;9.216;2022-07-10T02:31:07;7.73;;;6.33;;
14205;SDS011;7186;48.800;9.216;2022-07-10T02:33:32;7.87;;;6.17;;
14205;SDS011;7186;48.800;9.216;2022-07-10T02:35:57;6.97;;;6.27;;
14205;SDS011;7186;48.800;9.216;2022-07-10T02:38:22;7.77;;;6.97;;
14205;SDS011;7186;48.800;9.216;2022-07-10T02:40:48;8.30;;;7.20;;
14205;SDS011;7186;48.800;9.216;2022-07-10T02:43:13;10.27;;;8.57;;
14205;SDS011;7186;48.800;9.216;2022-07-10T02:45:39;9.87;;;8.73;;
14205;SDS011;7186;48.800;9.216;2022-07-10T02:48:04;10.27;;;9.00;;
14205;SDS011;7186;48.800;9.216;2022-07-10T02:50:29;10.23;;;9.13;;
14205;SDS011;7186;48.800;9.216;2022-07-10T02:52:54;12.07;;;10.50;;
14205;SDS011;7186;48.800;9.216;2022-07-10T02:55:20;12.13;;;9.57;;
14205;SDS011;7186;48.800;9.216;2022-07-10T02:57:45;12.27;;;10.00;;
14205;SDS011;7186;48.800;9.216;2022-07-10T03:00:10;13.40;;;9.13;;
14205;SDS011;7186;48.800;9.216;2022-07-10T03:02:36;10.83;;;9.10;;
14205;SDS011;7186;48.800;9.216;2022-07-10T03:05:01;11.80;;;9.30;;
14205;SDS011;7186;48.800;9.216;2022-07-10T03:07:26;11.67;;;9.37;;
14205;SDS011;7186;48.800;9.216;2022-07-10T03:09:52;15.57;;;9.57;;
14205;SDS011;7186;48.800;9.216;2022-07-10T03:12:17;11.53;;;9.10;;
14205;SDS011;7186;48.800;9.216;2022-07-10T03:14:42;11.57;;;8.83;;
14205;SDS011;7186;48.800;9.216;2022-07-10T03:17:07;11.13;;;9.00;;
14205;SDS011;7186;48.800;9.216;2022-07-10T03:19:33;11.37;;;9.33;;
14205;SDS011;7186;48.800;9.216;2022-07-10T03:21:58;11.60;;;9.17;;
14205;SDS011;7186;48.800;9.216;2022-07-10T03:24:23;10.37;;;9.03;;
14205;SDS011;7186;48.800;9.216;2022-07-10T03:26:49;13.03;;;9.00;;
14205;SDS011;7186;48.800;9.216;2022-07-10T03:29:14;10.43;;;9.23;;
14205;SDS011;7186;48.800;9.216;2022-07-10T03:31:39;11.20;;;8.80;;
14205;SDS011;7186;48.800;9.216;2022-07-10T03:34:04;11.17;;;8.97;;
14205;SDS011;7186;48.800;9.216;2022-07-10T03:36:29;11.27;;;8.93;;
14205;SDS011;7186;48.800;9.216;2022-07-10T03:38:55;9.93;;;8.30;;
14205;SDS011;7186;48.800;9.216;2022-07-10T03:41:20;11.20;;;7.77;;
14205;SDS011;7186;48.800;9.216;2022-07-10T03:43:45;11.73;;;8.63;;
14205;SDS011;7186;48.800;9.216;2022-07-10T03:46:11;12.33;;;8.20;;
14205;SDS011;7186;48.800;9.216;2022-07-10T03:48:36;10.17;;;8.00;;
14205;SDS011;7186;48.800;9.216;2022-07-10T03:51:01;9.43;;;7.90;;
14205;SDS011;7186;48.800;9.216;2022-07-10T03:53:26;11.33;;;8.57;;
14205;SDS011;7186;48.800;9.216;2022-07-10T03:55:52;12.23;;;8.50;;
14205;SDS011;7186;48.800;9.216;2022-07-10T03:58:17;9.17;;;8.20;;
14205;SDS011;7186;48.800;9.216;2022-07-10T04:00:42;10.33;;;8.17;;
14205;SDS011;7186;48.800;9.216;2022-07-10T04:03:08;10.73;;;8.33;;
14205;SDS011;7186;48.800;9.216;2022-07-10T04:05:33;11.07;;;8.53;;
14205;SDS011;7186;48.800;9.216;2022-07-10T04:08:00;10.03;;;8.10;;
14205;SDS011;7186;48.800;9.216;2022-07-10T04:10:26;11.93;;;8.30;;
14205;SDS011;7186;48.800;9.216;2022-07-10T04:12:51;9.70;;;8.70;;
14205;SDS011;7186;48.800;9.216;2022-07-10T04:15:17;11.07;;;7.77;;
14205;SDS011;7186;48.800;9.216;2022-07-10T04:17:42;9.93;;;7.97;;
14205;SDS011;7186;48.800;9.216;2022-07-10T04:20:07;9.63;;;7.80;;
14205;SDS011;7186;48.800;9.216;2022-07-10T04:22:33;8.90;;;8.00;;
14205;SDS011;7186;48.800;9.216;2022-07-10T04:24:59;8.30;;;7.47;;
14205;SDS011;7186;48.800;9.216;2022-07-10T04:27:27;11.97;;;7.80;;
14205;SDS011;7186;48.800;9.216;2022-07-10T04:29:52;8.90;;;7.67;;
14205;SDS011;7186;48.800;9.216;2022-07-10T04:32:17;10.43;;;8.03;;
14205;SDS011;7186;48.800;9.216;2022-07-10T04:34:43;9.97;;;8.03;;
14205;SDS011;7186;48.800;9.216;2022-07-10T04:37:08;9.00;;;7.60;;
14205;SDS011;7186;48.800;9.216;2022-07-10T04:39:34;11.20;;;7.87;;
14205;SDS011;7186;48.800;9.216;2022-07-10T04:42:00;9.50;;;7.40;;
14205;SDS011;7186;48.800;9.216;2022-07-10T04:44:25;9.90;;;7.53;;
14205;SDS011;7186;48.800;9.216;2022-07-10T04:46:50;10.07;;;7.33;;
14205;SDS011;7186;48.800;9.216;2022-07-10T04:49:16;8.27;;;6.57;;
14205;SDS011;7186;48.800;9.216;2022-07-10T04:51:41;9.87;;;7.10;;
14205;SDS011;7186;48.800;9.216;2022-07-10T04:54:06;11.80;;;6.87;;
14205;SDS011;7186;48.800;9.216;2022-07-10T04:56:31;8.47;;;7.27;;
14205;SDS011;7186;48.800;9.216;2022-07-10T04:58:57;10.27;;;7.27;;
14205;SDS011;7186;48.800;9.216;2022-07-10T05:01:22;10.47;;;7.70;;
14205;SDS011;7186;48.800;9.216;2022-07-10T05:03:47;9.70;;;6.90;;
14205;SDS011;7186;48.800;9.216;2022-07-10T05:06:12;8.57;;;7.17;;
14205;SDS011;7186;48.800;9.216;2022-07-10T05:08:38;13.67;;;7.17;;
14205;SDS011;7186;48.800;9.216;2022-07-10T05:11:03;10.67;;;7.03;;
14205;SDS011;7186;48.800;9.216;2022-07-10T05:13:28;7.60;;;5.90;;
14205;SDS011;7186;48.800;9.216;2022-07-10T05:15:53;8.40;;;6.30;;
14205;SDS011;7186;48.800;9.216;2022-07-10T05:18:19;13.57;;;6.43;;
14205;SDS011;7186;48.800;9.216;2022-07-10T05:20:44;6.80;;;6.07;;
14205;SDS011;7186;48.800;9.216;2022-07-10T05:23:12;8.00;;;6.00;;
14205;SDS011;7186;48.800;9.216;2022-07-10T05:25:37;6.57;;;5.30;;
14205;SDS011;7186;48.800;9.216;2022-07-10T05:28:03;6.17;;;5.43;;
14205;SDS011;7186;48.800;9.216;2022-07-10T05:30:29;5.43;;;4.70;;
14205;SDS011;7186;48.800;9.216;2022-07-10T05:32:54;6.70;;;4.67;;
14205;SDS011;7186;48.800;9.216;2022-07-10T05:35:19;5.50;;;4.27;;
14205;SDS011;7186;48.800;9.216;2022-07-10T05:37:45;5.40;;;4.40;;
14205;SDS011;7186;48.800;9.216;2022-07-10T05:40:10;5.13;;;4.17;;
14205;SDS011;7186;48.800;9.216;2022-07-10T05:42:35;6.10;;;4.00;;
14205;SDS011;7186;48.800;9.216;2022-07-10T05:45:01;6.03;;;4.60;;
14205;SDS011;7186;48.800;9.216;2022-07-10T05:47:26;5.40;;;4.53;;
14205;SDS011;7186;48.800;9.216;2022-07-10T05:49:51;4.70;;;3.60;;
14205;SDS011;7186;48.800;9.216;2022-07-10T05:52:16;5.00;;;3.87;;
14205;SDS011;7186;48.800;9.216;2022-07-10T05:54:41;4.23;;;3.27;;
14205;SDS011;7186;48.800;9.216;2022-07-10T05:57:07;3.53;;;3.23;;
14205;SDS011;7186;48.800;9.216;2022-07-10T05:59:35;3.80;;;3.40;;
14205;SDS011;7186;48.800;9.216;2022-07-10T06:02:01;4.47;;;3.37;;
14205;SDS011;7186;48.800;9.216;2022-07-10T06:04:26;5.27;;;3.13;;
14205;SDS011;7186;48.800;9.216;2022-07-10T06:06:52;3.53;;;3.10;;
14205;SDS011;7186;48.800;9.216;2022-07-10T06:09:17;4.13;;;2.83;;
14205;SDS011;7186;48.800;9.216;2022-07-10T06:11:42;4.80;;;2.70;;
14205;SDS011;7186;48.800;9.216;2022-07-10T06:14:09;2.83;;;2.53;;
14205;SDS011;7186;48.800;9.216;2022-07-10T06:16:34;4.87;;;2.87;;
14205;SDS011;7186;48.800;9.216;2022-07-10T06:18:59;3.97;;;2.87;;
14205;SDS011;7186;48.800;9.216;2022-07-10T06:21:25;5.80;;;2.90;;
14205;SDS011;7186;48.800;9.216;2022-07-10T06:23:50;4.10;;;2.70;;
14205;SDS011;7186;48.800;9.216;2022-07-10T06:26:15;4.57;;;2.80;;
14205;SDS011;7186;48.800;9.216;2022-07-10T06:28:41;6.40;;;3.07;;
14205;SDS011;7186;48.800;9.216;2022-07-10T06:31:06;4.23;;;3.00;;
14205;SDS011;7186;48.800;9.216;2022-07-10T06:33:31;6.17;;;2.50;;
14205;SDS011;7186;48.800;9.216;2022-07-10T06:36:03;3.57;;;2.93;;
14205;SDS011;7186;48.800;9.216;2022-07-10T06:38:28;4.03;;;2.97;;
14205;SDS011;7186;48.800;9.216;2022-07-10T06:40:54;3.93;;;3.03;;
14205;SDS011;7186;48.800;9.216;2022-07-10T06:43:19;3.17;;;2.87;;
14205;SDS011;7186;48.800;9.216;2022-07-10T06:45:44;6.73;;;3.43;;
14205;SDS011;7186;48.800;9.216;2022-07-10T06:48:10;4.60;;;2.67;;
14205;SDS011;7186;48.800;9.216;2022-07-10T06:50:35;4.33;;;3.00;;
14205;SDS011;7186;48.800;9.216;2022-07-10T06:53:01;3.97;;;2.40;;
14205;SDS011;7186;48.800;9.216;2022-07-10T06:55:27;4.47;;;2.70;;
14205;SDS011;7186;48.800;9.216;2022-07-10T06:57:52;3.20;;;2.47;;
14205;SDS011;7186;48.800;9.216;2022-07-10T07:00:17;5.13;;;2.77;;
14205;SDS011;7186;48.800;9.216;2022-07-10T07:02:43;3.93;;;2.60;;
14205;SDS011;7186;48.800;9.216;2022-07-10T07:05:08;7.47;;;2.63;;
14205;SDS011;7186;48.800;9.216;2022-07-10T07:07:34;3.90;;;2.77;;
14205;SDS011;7186;48.800;9.216;2022-07-10T07:09:59;3.70;;;3.10;;
14205;SDS011;7186;48.800;9.216;2022-07-10T07:12:25;5.57;;;3.00;;
14205;SDS011;7186;48.800;9.216;2022-07-10T07:14:50;3.63;;;2.50;;
14205;SDS011;7186;48.800;9.216;2022-07-10T07:17:15;3.00;;;2.47;;
14205;SDS011;7186;48.800;9.216;2022-07-10T07:19:47;4.23;;;2.30;;
14205;SDS011;7186;48.800;9.216;2022-07-10T07:22:31;5.57;;;2.50;;
14205;SDS011;7186;48.800;9.216;2022-07-10T07:25:14;3.30;;;2.23;;
14205;SDS011;7186;48.800;9.216;2022-07-10T07:27:40;5.97;;;2.20;;
14205;SDS011;7186;48.800;9.216;2022-07-10T07:30:08;4.90;;;2.90;;
14205;SDS011;7186;48.800;9.216;2022-07-10T07:32:40;5.00;;;2.63;;
14205;SDS011;7186;48.800;9.216;2022-07-10T07:35:06;2.87;;;2.20;;
14205;SDS011;7186;48.800;9.216;2022-07-10T07:37:49;5.33;;;2.70;;
14205;SDS011;7186;48.800;9.216;2022-07-10T07:40:16;4.77;;;2.33;;
14205;SDS011;7186;48.800;9.216;2022-07-10T07:42:41;4.47;;;2.13;;
14205;SDS011;7186;48.800;9.216;2022-07-10T07:45:07;3.30;;;2.37;;
14205;SDS011;7186;48.800;9.216;2022-07-10T07:47:46;3.13;;;2.43;;
14205;SDS011;7186;48.800;9.216;2022-07-10T07:50:13;4.77;;;2.67;;
14205;SDS011;7186;48.800;9.216;2022-07-10T07:52:38;3.83;;;2.57;;
14205;SDS011;7186;48.800;9.216;2022-07-10T07:55:04;2.37;;;2.17;;
14205;SDS011;7186;48.800;9.216;2022-07-10T07:57:29;2.40;;;2.20;;
14205;SDS011;7186;48.800;9.216;2022-07-10T07:59:54;4.83;;;2.27;;
14205;SDS011;7186;48.800;9.216;2022-07-10T08:02:19;4.10;;;2.57;;
14205;SDS011;7186;48.800;9.216;2022-07-10T08:04:46;4.10;;;2.30;;
14205;SDS011;7186;48.800;9.216;2022-07-10T08:07:11;3.00;;;2.57;;
14205;SDS011;7186;48.800;9.216;2022-07-10T08:09:36;3.80;;;2.57;;
14205;SDS011;7186;48.800;9.216;2022-07-10T08:12:02;4.37;;;2.40;;
14205;SDS011;7186;48.800;9.216;2022-07-10T08:14:27;3.73;;;2.00;;
14205;SDS011;7186;48.800;9.216;2022-07-10T08:16:52;3.77;;;2.30;;
14205;SDS011;7186;48.800;9.216;2022-07-10T08:19:18;4.77;;;2.70;;
14205;SDS011;7186;48.800;9.216;2022-07-10T08:21:43;3.57;;;2.50;;
14205;SDS011;7186;48.800;9.216;2022-07-10T08:24:08;2.37;;;2.13;;
14205;SDS011;7186;48.800;9.216;2022-07-10T08:26:33;3.40;;;2.20;;
14205;SDS011;7186;48.800;9.216;2022-07-10T08:28:59;4.03;;;2.10;;
14205;SDS011;7186;48.800;9.216;2022-07-10T08:31:24;5.23;;;2.30;;
14205;SDS011;7186;48.800;9.216;2022-07-10T08:33:49;3.27;;;2.30;;
14205;SDS011;7186;48.800;9.216;2022-07-10T08:36:16;2.87;;;2.10;;
14205;SDS011;7186;48.800;9.216;2022-07-10T08:38:41;3.03;;;2.23;;
14205;SDS011;7186;48.800;9.216;2022-07-10T08:41:06;2.97;;;1.97;;
14205;SDS011;7186;48.800;9.216;2022-07-10T08:43:31;3.40;;;2.37;;
14205;SDS011;7186;48.800;9.216;2022-07-10T08:45:57;3.13;;;2.03;;
14205;SDS011;7186;48.800;9.216;2022-07-10T08:48:23;2.30;;;1.90;;
14205;SDS011;7186;48.800;9.216;2022-07-10T08:50:51;3.33;;;2.10;;
14205;SDS011;7186;48.800;9.216;2022-07-10T08:53:18;2.27;;;1.87;;
14205;SDS011;7186;48.800;9.216;2022-07-10T08:55:47;2.97;;;1.90;;
14205;SDS011;7186;48.800;9.216;2022-07-10T08:58:12;2.00;;;1.90;;
14205;SDS011;7186;48.800;9.216;2022-07-10T09:00:38;2.60;;;2.10;;
14205;SDS011;7186;48.800;9.216;2022-07-10T09:03:03;4.33;;;2.23;;
14205;SDS011;7186;48.800;9.216;2022-07-10T09:05:28;4.17;;;2.17;;
14205;SDS011;7186;48.800;9.216;2022-07-10T09:07:54;3.33;;;2.20;;
14205;SDS011;7186;48.800;9.216;2022-07-10T09:10:19;3.43;;;1.90;;
14205;SDS011;7186;48.800;9.216;2022-07-10T09:12:52;4.17;;;2.30;;
14205;SDS011;7186;48.800;9.216;2022-07-10T09:15:19;5.00;;;2.17;;
14205;SDS011;7186;48.800;9.216;2022-07-10T09:18:02;3.60;;;2.27;;
14205;SDS011;7186;48.800;9.216;2022-07-10T09:20:31;2.37;;;2.10;;
14205;SDS011;7186;48.800;9.216;2022-07-10T09:22:57;3.60;;;1.90;;
14205;SDS011;7186;48.800;9.216;2022-07-10T09:25:29;2.33;;;1.97;;
14205;SDS011;7186;48.800;9.216;2022-07-10T09:27:54;3.17;;;1.80;;
14205;SDS011;7186;48.800;9.216;2022-07-10T09:30:35;4.07;;;2.10;;
14205;SDS011;7186;48.800;9.216;2022-07-10T09:36:09;2.70;;;1.80;;
14205;SDS011;7186;48.800;9.216;2022-07-10T09:41:20;2.93;;;1.60;;
14205;SDS011;7186;48.800;9.216;2022-07-10T09:46:15;2.90;;;1.80;;
14205;SDS011;7186;48.800;9.216;2022-07-10T09:48:40;6.93;;;1.97;;
14205;SDS011;7186;48.800;9.216;2022-07-10T09:51:09;3.23;;;1.60;;
14205;SDS011;7186;48.800;9.216;2022-07-10T09:56:04;5.27;;;2.00;;
14205;SDS011;7186;48.800;9.216;2022-07-10T09:58:31;4.53;;;1.80;;
14205;SDS011;7186;48.800;9.216;2022-07-10T10:00:57;2.50;;;1.70;;
14205;SDS011;7186;48.800;9.216;2022-07-10T10:03:23;5.30;;;2.00;;
14205;SDS011;7186;48.800;9.216;2022-07-10T10:05:58;3.00;;;1.73;;
14205;SDS011;7186;48.800;9.216;2022-07-10T10:08:31;2.50;;;1.90;;
14205;SDS011;7186;48.800;9.216;2022-07-10T10:10:57;4.23;;;1.67;;
14205;SDS011;7186;48.800;9.216;2022-07-10T10:13:24;3.17;;;2.00;;
14205;SDS011;7186;48.800;9.216;2022-07-10T10:15:52;2.23;;;2.03;;
14205;SDS011;7186;48.800;9.216;2022-07-10T10:18:18;3.13;;;1.87;;
14205;SDS011;7186;48.800;9.216;2022-07-10T10:20:44;5.83;;;2.10;;
14205;SDS011;7186;48.800;9.216;2022-07-10T10:23:12;2.83;;;1.90;;
14205;SDS011;7186;48.800;9.216;2022-07-10T10:25:38;3.83;;;1.80;;
14205;SDS011;7186;48.800;9.216;2022-07-10T10:28:04;2.63;;;1.90;;
14205;SDS011;7186;48.800;9.216;2022-07-10T10:30:31;5.03;;;2.00;;
14205;SDS011;7186;48.800;9.216;2022-07-10T10:32:56;4.00;;;2.13;;
14205;SDS011;7186;48.800;9.216;2022-07-10T10:38:06;2.23;;;1.80;;
14205;SDS011;7186;48.800;9.216;2022-07-10T10:40:32;3.33;;;1.90;;
14205;SDS011;7186;48.800;9.216;2022-07-10T10:42:58;2.57;;;1.90;;
14205;SDS011;7186;48.800;9.216;2022-07-10T10:45:24;4.57;;;1.70;;
14205;SDS011;7186;48.800;9.216;2022-07-10T10:47:59;3.60;;;2.03;;
14205;SDS011;7186;48.800;9.216;2022-07-10T10:50:37;4.03;;;1.80;;
14205;SDS011;7186;48.800;9.216;2022-07-10T10:58:38;6.37;;;2.20;;
14205;SDS011;7186;48.800;9.216;2022-07-10T11:01:04;3.97;;;2.20;;
14205;SDS011;7186;48.800;9.216;2022-07-10T11:03:30;5.10;;;2.27;;
14205;SDS011;7186;48.800;9.216;2022-07-10T11:05:55;4.57;;;2.00;;
14205;SDS011;7186;48.800;9.216;2022-07-10T11:08:37;5.43;;;2.43;;
14205;SDS011;7186;48.800;9.216;2022-07-10T11:13:48;4.13;;;2.00;;
14205;SDS011;7186;48.800;9.216;2022-07-10T11:16:14;5.50;;;3.10;;
14205;SDS011;7186;48.800;9.216;2022-07-10T11:18:39;18.63;;;11.90;;
14205;SDS011;7186;48.800;9.216;2022-07-10T11:21:05;27.10;;;14.30;;
14205;SDS011;7186;48.800;9.216;2022-07-10T11:26:03;15.70;;;10.20;;
14205;SDS011;7186;48.800;9.216;2022-07-10T11:31:13;11.67;;;5.17;;
14205;SDS011;7186;48.800;9.216;2022-07-10T11:33:39;14.23;;;7.70;;
14205;SDS011;7186;48.800;9.216;2022-07-10T11:36:11;9.47;;;5.10;;
14205;SDS011;7186;48.800;9.216;2022-07-10T11:38:38;8.73;;;3.97;;
14205;SDS011;7186;48.800;9.216;2022-07-10T11:41:04;4.97;;;2.93;;
14205;SDS011;7186;48.800;9.216;2022-07-10T11:43:29;4.00;;;2.00;;
14205;SDS011;7186;48.800;9.216;2022-07-10T11:45:54;6.00;;;1.80;;
14205;SDS011;7186;48.800;9.216;2022-07-10T11:48:24;4.30;;;1.90;;
14205;SDS011;7186;48.800;9.216;2022-07-10T11:50:49;5.07;;;1.80;;
14205;SDS011;7186;48.800;9.216;2022-07-10T11:53:22;3.17;;;1.60;;
14205;SDS011;7186;48.800;9.216;2022-07-10T11:55:47;5.03;;;2.00;;
14205;SDS011;7186;48.800;9.216;2022-07-10T11:58:17;3.10;;;1.60;;
14205;SDS011;7186;48.800;9.216;2022-07-10T12:00:42;2.10;;;1.60;;
14205;SDS011;7186;48.800;9.216;2022-07-10T12:03:18;2.47;;;1.90;;
14205;SDS011;7186;48.800;9.216;2022-07-10T12:05:43;3.23;;;1.40;;
14205;SDS011;7186;48.800;9.216;2022-07-10T12:08:09;4.43;;;1.63;;
14205;SDS011;7186;48.800;9.216;2022-07-10T12:10:36;5.03;;;2.03;;
14205;SDS011;7186;48.800;9.216;2022-07-10T12:13:08;3.17;;;1.87;;
14205;SDS011;7186;48.800;9.216;2022-07-10T12:18:03;1.87;;;1.50;;
14205;SDS011;7186;48.800;9.216;2022-07-10T12:20:28;2.27;;;1.50;;
14205;SDS011;7186;48.800;9.216;2022-07-10T12:22:54;2.27;;;1.33;;
14205;SDS011;7186;48.800;9.216;2022-07-10T12:25:20;1.57;;;1.40;;
14205;SDS011;7186;48.800;9.216;2022-07-10T12:27:45;2.63;;;1.50;;
14205;SDS011;7186;48.800;9.216;2022-07-10T12:30:11;3.10;;;1.33;;
14205;SDS011;7186;48.800;9.216;2022-07-10T12:32:36;1.60;;;1.20;;
14205;SDS011;7186;48.800;9.216;2022-07-10T12:35:01;1.90;;;1.37;;
14205;SDS011;7186;48.800;9.216;2022-07-10T12:37:27;1.73;;;1.30;;
14205;SDS011;7186;48.800;9.216;2022-07-10T12:39:52;2.00;;;1.43;;
14205;SDS011;7186;48.800;9.216;2022-07-10T12:42:51;1.40;;;1.23;;
14205;SDS011;7186;48.800;9.216;2022-07-10T12:45:13;1.37;;;1.27;;
14205;SDS011;7186;48.800;9.216;2022-07-10T12:47:48;3.50;;;1.53;;
14205;SDS011;7186;48.800;9.216;2022-07-10T12:50:14;1.57;;;1.47;;
14205;SDS011;7186;48.800;9.216;2022-07-10T12:52:41;3.17;;;1.20;;
14205;SDS011;7186;48.800;9.216;2022-07-10T12:57:32;1.53;;;1.20;;
14205;SDS011;7186;48.800;9.216;2022-07-10T13:00:04;1.57;;;1.20;;
14205;SDS011;7186;48.800;9.216;2022-07-10T13:02:30;1.73;;;1.53;;
14205;SDS011;7186;48.800;9.216;2022-07-10T13:04:56;2.10;;;1.60;;
14205;SDS011;7186;48.800;9.216;2022-07-10T13:07:31;3.20;;;1.43;;
14205;SDS011;7186;48.800;9.216;2022-07-10T13:09:58;1.33;;;1.30;;
14205;SDS011;7186;48.800;9.216;2022-07-10T13:12:23;2.20;;;1.17;;
14205;SDS011;7186;48.800;9.216;2022-07-10T13:14:48;2.77;;;1.30;;
14205;SDS011;7186;48.800;9.216;2022-07-10T13:17:14;3.37;;;1.43;;
14205;SDS011;7186;48.800;9.216;2022-07-10T13:19:39;2.53;;;1.50;;
14205;SDS011;7186;48.800;9.216;2022-07-10T13:22:04;3.00;;;1.27;;
14205;SDS011;7186;48.800;9.216;2022-07-10T13:24:29;2.43;;;1.33;;
14205;SDS011;7186;48.800;9.216;2022-07-10T13:26:55;3.83;;;1.40;;
14205;SDS011;7186;48.800;9.216;2022-07-10T13:29:22;1.87;;;1.27;;
14205;SDS011;7186;48.800;9.216;2022-07-10T13:31:47;2.27;;;1.37;;
14205;SDS011;7186;48.800;9.216;2022-07-10T13:34:12;5.03;;;1.70;;
14205;SDS011;7186;48.800;9.216;2022-07-10T13:36:37;2.10;;;1.10;;
14205;SDS011;7186;48.800;9.216;2022-07-10T13:39:03;2.40;;;1.30;;
14205;SDS011;7186;48.800;9.216;2022-07-10T13:41:28;3.33;;;1.30;;
14205;SDS011;7186;48.800;9.216;2022-07-10T13:43:53;2.83;;;1.87;;
14205;SDS011;7186;48.800;9.216;2022-07-10T13:46:18;2.17;;;1.60;;
14205;SDS011;7186;48.800;9.216;2022-07-10T13:48:44;4.70;;;1.40;;
14205;SDS011;7186;48.800;9.216;2022-07-10T13:51:09;1.30;;;1.20;;
14205;SDS011;7186;48.800;9.216;2022-07-10T13:53:34;1.40;;;1.30;;
14205;SDS011;7186;48.800;9.216;2022-07-10T13:55:59;1.93;;;1.10;;
14205;SDS011;7186;48.800;9.216;2022-07-10T13:58:25;2.00;;;1.20;;
14205;SDS011;7186;48.800;9.216;2022-07-10T14:00:50;2.00;;;1.30;;
14205;SDS011;7186;48.800;9.216;2022-07-10T14:03:15;2.77;;;1.40;;
14205;SDS011;7186;48.800;9.216;2022-07-10T14:05:41;1.00;;;1.00;;
14205;SDS011;7186;48.800;9.216;2022-07-10T14:08:07;1.27;;;1.17;;
14205;SDS011;7186;48.800;9.216;2022-07-10T14:10:32;3.13;;;1.37;;
14205;SDS011;7186;48.800;9.216;2022-07-10T14:12:57;1.63;;;1.20;;
14205;SDS011;7186;48.800;9.216;2022-07-10T14:15:22;3.20;;;1.60;;
14205;SDS011;7186;48.800;9.216;2022-07-10T14:17:48;3.17;;;1.53;;
14205;SDS011;7186;48.800;9.216;2022-07-10T14:20:14;1.37;;;1.20;;
14205;SDS011;7186;48.800;9.216;2022-07-10T14:22:39;2.53;;;1.30;;
14205;SDS011;7186;48.800;9.216;2022-07-10T14:25:05;1.60;;;1.17;;
14205;SDS011;7186;48.800;9.216;2022-07-10T14:27:30;1.37;;;1.23;;
14205;SDS011;7186;48.800;9.216;2022-07-10T14:29:57;1.37;;;1.20;;
14205;SDS011;7186;48.800;9.216;2022-07-10T14:32:22;1.43;;;1.27;;
14205;SDS011;7186;48.800;9.216;2022-07-10T14:34:47;2.27;;;1.33;;
14205;SDS011;7186;48.800;9.216;2022-07-10T14:37:12;2.00;;;1.20;;
14205;SDS011;7186;48.800;9.216;2022-07-10T14:39:38;1.50;;;1.20;;
14205;SDS011;7186;48.800;9.216;2022-07-10T14:42:03;2.07;;;1.30;;
14205;SDS011;7186;48.800;9.216;2022-07-10T14:44:30;3.00;;;1.30;;
14205;SDS011;7186;48.800;9.216;2022-07-10T14:46:55;2.73;;;1.43;;
14205;SDS011;7186;48.800;9.216;2022-07-10T14:49:20;3.23;;;1.20;;
14205;SDS011;7186;48.800;9.216;2022-07-10T14:51:45;4.00;;;1.30;;
14205;SDS011;7186;48.800;9.216;2022-07-10T14:54:11;2.30;;;1.10;;
14205;SDS011;7186;48.800;9.216;2022-07-10T14:56:36;2.00;;;0.97;;
14205;SDS011;7186;48.800;9.216;2022-07-10T14:59:01;1.17;;;0.90;;
14205;SDS011;7186;48.800;9.216;2022-07-10T15:01:26;2.63;;;1.40;;
14205;SDS011;7186;48.800;9.216;2022-07-10T15:03:52;1.73;;;1.20;;
14205;SDS011;7186;48.800;9.216;2022-07-10T15:06:20;2.27;;;1.10;;
14205;SDS011;7186;48.800;9.216;2022-07-10T15:08:45;2.03;;;1.00;;
14205;SDS011;7186;48.800;9.216;2022-07-10T15:11:10;1.93;;;1.27;;
14205;SDS011;7186;48.800;9.216;2022-07-10T15:13:36;6.67;;;1.53;;
14205;SDS011;7186;48.800;9.216;2022-07-10T15:16:01;2.07;;;1.30;;
14205;SDS011;7186;48.800;9.216;2022-07-10T15:18:26;2.70;;;1.53;;
14205;SDS011;7186;48.800;9.216;2022-07-10T15:20:54;3.53;;;1.70;;
14205;SDS011;7186;48.800;9.216;2022-07-10T15:23:20;2.73;;;1.17;;
14205;SDS011;7186;48.800;9.216;2022-07-10T15:25:45;1.93;;;1.10;;